Latest Coastal Weather Observations for Avalon

IDV60701

Issued at 1:02 am EST Sunday 26 June 2022 (issued every 10 minutes, with the page automatically refreshed every 10 minutes)

About coastal observations | Map of coastal stations | Coastal observations for VIC | Marine services | Other Formats
Station Details ID: 087113 Name: AVALON AIRPORT Lat: -38.03 Lon: 144.48 Height: 10.6 m
Data from the previous 72 hours. | See also: Recent months at Avalon
Date/Time
EST
Wind Sea
Height
m
Swell Vis
km
Cloud Weather Temp
°C
Press
MSL
hPa
Rain since
9am
mm
Dir  Spd
kts
Gust
kts
Height
m
Period
s
Dir
26/01:00am NNW 11 15 - - - - 10 Partly cloudy - 12.6 1020.1 0.0
26/12:30am NNW 10 13 - - - - 10 Partly cloudy - 12.5 1020.0 0.0
26/12:00am NNW 8 11 - - - - 10 Mostly cloudy - 12.0 1020.0 0.0
 
Date/Time
EST
Wind Sea
Height
m
Swell Vis
km
Cloud Weather Temp
°C
Press
MSL
hPa
Rain since
9am
mm
Dir  Spd
kts
Gust
kts
Height
m
Period
s
Dir
25/11:30pm NNW 10 14 - - - - 10 Partly cloudy - 12.2 1020.0 0.0
25/11:00pm NNW 8 11 - - - - 10 Partly cloudy - 11.7 1020.1 0.0
25/10:30pm NNW 9 13 - - - - 10 Partly cloudy - 12.6 1019.9 0.0
25/10:00pm NNW 9 13 - - - - 10 Partly cloudy - 12.8 1019.8 0.0
25/09:30pm N 9 13 - - - - 10 Cloudy - 11.8 1019.6 0.0
25/09:00pm N 10 12 - - - - 10 Cloudy - 11.6 1019.5 0.0
25/08:30pm N 9 11 - - - - 10 Partly cloudy - 11.2 1019.5 0.0
25/08:00pm N 10 13 - - - - 10 Cloudy - 11.6 1019.3 0.0
25/07:30pm N 11 14 - - - - 10 Partly cloudy - 11.3 1019.2 0.0
25/07:00pm N 10 13 - - - - 10 Cloudy - 12.1 1019.1 0.0
25/06:30pm N 12 15 - - - - 10 Partly cloudy - 12.2 1018.8 0.0
25/06:00pm N 12 16 - - - - 10 Cloudy - 12.7 1018.6 0.0
25/05:30pm NNW 10 13 - - - - 10 Partly cloudy - 12.6 1018.2 0.0
25/05:00pm NNW 12 16 - - - - 10 Partly cloudy - 13.7 1018.1 0.0
25/04:30pm NW 15 20 - - - - 10 Partly cloudy - 14.8 1018.2 0.0
25/04:00pm NW 15 19 - - - - 10 Partly cloudy - 14.9 1018.0 0.0
25/03:30pm NW 19 24 - - - - 10 Partly cloudy - 15.0 1017.9 0.0
25/03:00pm NW 18 22 - - - - 10 Partly cloudy - 15.7 1017.7 0.0
25/02:30pm NW 20 26 - - - - 10 Partly cloudy - 16.0 1017.8 0.0
25/02:00pm NW 20 26 - - - - 10 - - 16.0 1017.7 0.0
25/01:30pm NW 19 28 - - - - 10 - - 15.9 1017.9 0.0
25/01:00pm NW 20 26 - - - - 10 Partly cloudy - 15.6 1018.1 0.0
25/12:30pm NW 16 21 - - - - 10 - - 15.6 1018.4 0.0
25/12:00pm NW 15 21 - - - - 10 - - 15.3 1018.5 0.0
25/11:30am NW 17 22 - - - - 10 - - 14.7 1018.8 0.0
25/11:00am NW 16 23 - - - - 10 - - 14.3 1019.1 0.0
25/10:30am NNW 12 19 - - - - 10 - - 14.1 1019.2 0.0
25/10:00am NNW 11 16 - - - - 10 - - 13.3 1019.2 0.0
25/09:30am NNW 11 15 - - - - 10 - - 12.4 1018.8 0.0
25/09:00am NNW 12 16 - - - - 10 - - 11.6 1018.5 0.2
25/08:30am NNW 11 16 - - - - 10 - - 10.6 1018.3 0.2
25/08:00am NNW 11 15 - - - - 10 - - 10.0 1018.1 0.2
25/07:30am NW 8 11 - - - - 10 - - 9.7 1018.1 0.2
25/07:00am NW 8 11 - - - - 10 Partly cloudy - 9.7 1018.0 0.2
25/06:30am NNW 10 14 - - - - 10 Partly cloudy - 10.1 1017.6 0.2
25/06:00am NNW 7 9 - - - - 10 Partly cloudy - 8.5 1017.7 0.2
25/05:30am N 7 9 - - - - 10 Partly cloudy - 6.8 1017.3 0.2
25/05:00am N 8 9 - - - - 10 - - 6.8 1016.9 0.2
25/04:30am N 8 9 - - - - 10 - - 6.4 1016.7 0.2
25/04:00am N 8 8 - - - - 10 Partly cloudy - 6.3 1016.8 0.2
25/03:30am N 7 8 - - - - 10 - - 6.6 1016.8 0.2
25/03:00am N 7 8 - - - - 10 - - 7.1 1016.7 0.2
25/02:30am N 8 9 - - - - 10 - - 7.8 1016.6 0.2
25/02:00am NNW 9 11 - - - - 10 Partly cloudy - 9.7 1016.4 0.2
25/01:30am N 7 8 - - - - 10 - - 8.7 1016.6 0.2
25/01:00am N 7 8 - - - - 10 - - 8.9 1016.6 0.2
25/12:30am N 7 8 - - - - 10 Partly cloudy - 9.6 1016.9 0.2
25/12:00am NW 7 9 - - - - 10 Cloudy - 10.8 1017.2 0.2
 
Date/Time
EST
Wind Sea
Height
m
Swell Vis
km
Cloud Weather Temp
°C
Press
MSL
hPa
Rain since
9am
mm
Dir  Spd
kts
Gust
kts
Height
m
Period
s
Dir
24/11:30pm NW 7 10 - - - - 10 Partly cloudy - 10.9 1017.2 0.2
24/11:00pm NW 7 10 - - - - 10 Cloudy - 10.6 1017.2 0.2
24/10:30pm NW 8 10 - - - - 10 Partly cloudy - 10.6 1017.1 0.2
24/10:00pm NW 10 11 - - - - 10 Partly cloudy - 10.2 1017.2 0.2
24/09:30pm NW 8 11 - - - - 10 Partly cloudy - 10.3 1017.2 0.2
24/09:00pm NNW 7 8 - - - - 10 Cloudy - 9.2 1017.2 0.2
24/08:30pm NW 5 7 - - - - 10 Partly cloudy - 10.4 1017.2 0.2
24/08:00pm NW 7 9 - - - - 10 Partly cloudy - 10.1 1017.1 0.2
24/07:30pm NW 7 8 - - - - 10 Partly cloudy - 10.1 1016.9 0.2
24/07:00pm NNW 6 7 - - - - 10 Partly cloudy - 10.6 1016.8 0.2
24/06:30pm NW 10 13 - - - - 10 Partly cloudy - 11.3 1016.6 0.2
24/06:00pm NW 11 15 - - - - 10 Mostly cloudy Rain 12.0 1016.3 0.0
24/05:30pm NW 7 10 - - - - 10 Partly cloudy - 11.8 1015.9 0.0
24/05:00pm W 10 15 - - - - 10 Cloudy - 12.7 1015.6 0.0
24/04:30pm W 12 15 - - - - 10 Cloudy - 13.4 1015.3 0.0
24/04:00pm W 11 14 - - - - 10 Partly cloudy - 14.3 1015.1 0.0
24/03:30pm WNW 11 17 - - - - 10 Partly cloudy - 15.6 1014.8 0.0
24/03:00pm NW 10 14 - - - - 10 - - 15.4 1014.7 0.0
24/02:30pm W 13 20 - - - - 10 Partly cloudy - 14.9 1014.7 0.0
24/02:00pm WSW 17 21 - - - - 10 Partly cloudy - 13.4 1014.9 0.0
24/01:30pm WSW 19 25 - - - - 10 Partly cloudy - 12.8 1015.0 0.0
24/01:00pm W 14 20 - - - - 10 Partly cloudy - 15.2 1014.7 0.0
24/12:30pm WNW 16 21 - - - - 10 Partly cloudy - 15.7 1014.8 0.0
24/12:00pm W 16 24 - - - - 10 Partly cloudy - 14.8 1015.0 0.0
24/11:30am WNW 16 20 - - - - 10 Partly cloudy - 14.4 1015.2 0.0
24/11:00am WNW 15 20 - - - - 10 Partly cloudy - 14.4 1015.1 0.0
24/10:30am WNW 15 21 - - - - 10 Partly cloudy - 14.0 1015.1 0.0
24/10:00am WNW 12 19 - - - - 10 Partly cloudy - 13.4 1014.9 0.0
24/09:30am WNW 14 18 - - - - 10 Partly cloudy - 12.7 1014.6 0.0
24/09:19am W 11 17 - - - - 10 Partly cloudy - 12.4 1014.6 0.0
24/09:00am W 12 19 - - - - 5 Cloudy Showers 11.9 1014.4 0.6
24/08:59am W 12 19 - - - - 6 Partly cloudy - 12.0 1014.4 0.4
24/08:30am WNW 13 17 - - - - 10 Partly cloudy - 12.8 1013.8 0.2
24/08:00am WNW 17 23 - - - - 10 Partly cloudy - 12.7 1013.6 0.2
24/07:30am WNW 12 15 - - - - 10 Partly cloudy - 12.9 1013.4 0.2
24/07:00am WNW 14 17 - - - - 10 Partly cloudy - 13.2 1012.7 0.2
24/06:30am NW 12 16 - - - - 10 Partly cloudy - 12.9 1012.2 0.2
24/06:00am NW 9 11 - - - - 10 Mostly cloudy Rain 12.9 1012.0 0.2
24/05:30am NW 9 12 - - - - 10 Partly cloudy - 12.9 1011.5 0.2
24/05:00am NW 14 17 - - - - 10 Partly cloudy - 13.0 1011.0 0.2
24/04:30am NW 9 11 - - - - 10 Partly cloudy - 13.1 1011.0 0.2
24/04:00am NNW 11 16 - - - - 10 Cloudy - 13.6 1011.0 0.2
24/03:30am NW 11 16 - - - - 10 Cloudy - 14.3 1011.0 0.2
24/03:00am NNW 14 19 - - - - 10 Cloudy - 15.0 1011.3 0.2
24/02:30am NNW 16 21 - - - - 10 Partly cloudy - 15.5 1011.4 0.2
24/02:00am NNW 15 21 - - - - 10 Partly cloudy - 15.6 1011.6 0.2
24/01:30am NNW 13 18 - - - - 10 Partly cloudy - 14.9 1011.8 0.2
24/01:00am N 18 24 - - - - 10 Partly cloudy - 14.9 1011.4 0.2
24/12:30am N 17 24 - - - - 10 - - 15.0 1011.8 0.2
24/12:00am N 20 28 - - - - 10 Cloudy - 14.9 1011.7 0.2
 
Date/Time
EST
Wind Sea
Height
m
Swell Vis
km
Cloud Weather Temp
°C
Press
MSL
hPa
Rain since
9am
mm
Dir  Spd
kts
Gust
kts
Height
m
Period
s
Dir
23/11:30pm N 20 30 - - - - 10 Partly cloudy - 15.0 1012.2 0.2
23/11:24pm N 19 30 - - - - 10 Partly cloudy - 15.0 1012.1 0.2
23/11:00pm NNW 20 27 - - - - 10 - - 15.2 1012.5 0.2
23/10:30pm N 21 33 - - - - 10 - - 14.9 1012.3 0.2
23/10:20pm N 21 33 - - - - 10 - - 15.0 1012.4 0.2
23/10:00pm N 21 26 - - - - 10 - - 14.8 1012.6 0.2
23/09:30pm N 19 28 - - - - 10 - - 14.8 1013.0 0.2
23/09:00pm N 17 22 - - - - 10 Mostly clear - 14.6 1013.7 0.2
23/08:30pm N 13 19 - - - - 10 - - 14.4 1014.5 0.2
23/08:00pm NNE 8 10 - - - - 10 - - 12.5 1014.8 0.2
23/07:30pm NE 10 19 - - - - 10 - - 12.7 1014.9 0.2
23/07:00pm NNE 8 13 - - - - 10 - - 13.2 1015.1 0.2
23/06:30pm N 14 18 - - - - 10 - - 14.7 1015.4 0.2
23/06:00pm N 12 15 - - - - 10 Mostly clear - 14.5 1015.4 0.2
23/05:30pm N 11 16 - - - - 10 - - 14.7 1015.5 0.2
23/05:00pm NNW 10 15 - - - - 10 - - 15.0 1015.5 0.2
23/04:30pm NNW 11 17 - - - - 10 - - 15.3 1015.7 0.2
23/04:00pm NNW 14 19 - - - - 10 - - 15.4 1015.4 0.2
23/03:30pm NNW 14 18 - - - - 10 - - 15.6 1015.7 0.2
23/03:00pm NNW 14 20 - - - - 10 Mostly clear - 15.9 1015.9 0.0
23/02:30pm NNW 13 19 - - - - 10 - - 15.5 1016.1 0.0
23/02:00pm NNW 17 25 - - - - 10 - - 15.5 1016.2 0.0
23/01:30pm NNW 17 23 - - - - 10 - - 15.6 1016.8 0.0
23/01:00pm NNW 16 21 - - - - 10 - - 15.7 1017.4 0.0
23/12:30pm NNW 14 21 - - - - 10 - - 15.7 1018.3 0.0
23/12:00pm NW 12 18 - - - - 10 Mostly clear - 15.6 1019.0 0.0
23/11:30am N 6 9 - - - - 10 Partly cloudy - 15.7 1019.7 0.0
23/11:00am NNW 9 13 - - - - 10 Partly cloudy - 15.1 1020.2 0.0
23/10:30am NNW 7 11 - - - - 10 Partly cloudy - 14.6 1020.7 0.0
23/10:00am N 4 5 - - - - 10 Partly cloudy - 13.9 1021.0 0.0
23/09:30am N 6 8 - - - - 10 - - 12.7 1020.8 0.0
23/09:00am N 7 9 - - - - 10 Partly cloudy - 12.3 1020.8 0.0
23/08:30am N 8 11 - - - - 10 - - 12.0 1020.8 0.0
23/08:00am N 8 10 - - - - 10 Partly cloudy - 11.2 1020.9 0.0
23/07:30am N 9 11 - - - - 10 Partly cloudy - 11.8 1020.8 0.0
23/07:00am N 9 11 - - - - 10 Cloudy - 12.6 1021.0 0.0
23/06:30am NNW 8 10 - - - - 10 Partly cloudy - 12.1 1020.7 0.0
23/06:00am N 9 12 - - - - 10 Mostly cloudy - 11.9 1020.3 0.0
23/05:30am N 7 9 - - - - 10 Partly cloudy - 11.8 1020.5 0.0
23/05:00am N 7 9 - - - - 10 Cloudy - 11.1 1020.6 0.0
23/04:30am N 7 9 - - - - 10 Partly cloudy - 11.2 1020.5 0.0
23/04:00am N 7 8 - - - - 10 Partly cloudy - 11.5 1021.0 0.0
23/03:30am NNW 6 7 - - - - 10 Partly cloudy - 12.0 1021.4 0.0
23/03:00am NNW 6 8 - - - - 10 Cloudy - 12.8 1021.7 0.0
23/02:30am NNW 7 9 - - - - 10 Partly cloudy - 12.2 1022.0 0.0
23/02:00am NW 6 7 - - - - 10 Cloudy - 12.8 1022.2 0.0
23/01:30am N 5 5 - - - - 10 Cloudy - 11.2 1022.1 0.0

Other formats

Comma delimited format used in spreadsheet applications
http://www.bom.gov.au/fwo/IDV60701/IDV60701.94854.axf

JavaScript Object Notation format (JSON) in row-major order
http://www.bom.gov.au/fwo/IDV60701/IDV60701.94854.json

Data quality

Most of these data are generated automatically and are frequently updated. Quality checks on data are not normally performed. It is possible for incorrect values to appear. Refer to information at About Latest Weather Observations and please check the disclaimer before using these data.